createdAt,value
2023-05-19T00:01:39.565Z,102625.24
2023-05-19T00:04:10.100Z,102624.18
2023-05-19T00:06:40.716Z,102623.32
2023-05-19T00:09:11.324Z,102621.98
2023-05-19T00:11:41.957Z,102621.04
2023-05-19T00:14:12.462Z,102616.74
2023-05-19T00:16:43.068Z,102615.52
2023-05-19T00:19:13.811Z,102612.44
2023-05-19T00:21:44.296Z,102616.89
2023-05-19T00:24:14.914Z,102612.67
2023-05-19T00:26:45.125Z,102612.31
2023-05-19T00:29:15.707Z,102609.92
2023-05-19T00:31:46.415Z,102611.25
2023-05-19T00:34:16.884Z,102608.92
2023-05-19T00:36:47.450Z,102609.23
2023-05-19T00:39:17.696Z,102606.92
2023-05-19T00:41:48.315Z,102609.18
2023-05-19T00:44:18.859Z,102608.35
2023-05-19T00:46:49.547Z,102606.11
2023-05-19T00:49:20.101Z,102606.57
2023-05-19T00:51:50.635Z,102604.13
2023-05-19T00:54:21.170Z,102603.62
2023-05-19T00:56:51.795Z,102604.35
2023-05-19T00:59:22.322Z,102600.56
2023-05-19T01:01:52.913Z,102596.18
2023-05-19T01:04:23.484Z,102595.14
2023-05-19T01:06:54.127Z,102596.28
2023-05-19T01:09:24.681Z,102589.91
2023-05-19T01:11:55.267Z,102591.40
2023-05-19T01:14:25.876Z,102591.05
2023-05-19T01:16:56.529Z,102589.21
2023-05-19T01:19:27.128Z,102590.47
2023-05-19T01:21:57.810Z,102587.12
2023-05-19T01:24:28.264Z,102587.69
2023-05-19T01:26:58.992Z,102587.35
2023-05-19T01:29:29.489Z,102582.70
2023-05-19T01:32:00.257Z,102584.49
2023-05-19T01:34:30.724Z,102584.02
2023-05-19T01:37:01.466Z,102584.50
2023-05-19T01:39:31.967Z,102582.74
2023-05-19T01:42:02.375Z,102580.10
2023-05-19T01:44:32.958Z,102578.00
2023-05-19T01:47:03.580Z,102577.53
2023-05-19T01:49:34.194Z,102575.57
2023-05-19T01:52:04.799Z,102573.01
2023-05-19T01:54:35.581Z,102576.26
2023-05-19T01:57:06.332Z,102576.80
2023-05-19T01:59:36.623Z,102581.41
2023-05-19T02:02:07.015Z,102582.64
2023-05-19T02:04:37.357Z,102581.37
2023-05-19T02:07:07.756Z,102579.81
2023-05-19T02:09:37.736Z,102581.26
2023-05-19T02:12:08.412Z,102584.13
2023-05-19T02:14:39.022Z,102585.01
2023-05-19T02:17:09.307Z,102588.39
2023-05-19T02:19:39.947Z,102586.89
2023-05-19T02:22:10.595Z,102587.96
2023-05-19T02:24:41.226Z,102588.03
2023-05-19T02:27:11.578Z,102590.18
2023-05-19T02:29:41.963Z,102594.96
2023-05-19T02:32:12.697Z,102589.99
2023-05-19T02:34:42.621Z,102584.04
2023-05-19T02:37:12.630Z,102583.37
2023-05-19T02:39:43.013Z,102580.55
2023-05-19T02:42:13.637Z,102576.69
2023-05-19T02:44:44.282Z,102572.04
2023-05-19T02:47:14.917Z,102570.53
2023-05-19T02:49:45.277Z,102567.62
2023-05-19T02:52:15.905Z,102561.60
2023-05-19T02:54:46.188Z,102555.45
2023-05-19T02:57:16.804Z,102553.77
2023-05-19T02:59:47.543Z,102554.28
2023-05-19T03:02:18.107Z,102554.75
2023-05-19T03:04:48.815Z,102550.21
2023-05-19T03:07:19.341Z,102551.76
2023-05-19T03:09:49.993Z,102555.22
2023-05-19T03:12:20.341Z,102555.51
2023-05-19T03:14:50.745Z,102559.64
2023-05-19T03:17:21.072Z,102561.20
2023-05-19T03:19:51.472Z,102560.27
2023-05-19T03:22:21.862Z,102560.09
2023-05-19T03:24:52.501Z,102557.76
2023-05-19T03:27:22.829Z,102558.21
2023-05-19T03:29:53.215Z,102559.60
2023-05-19T03:32:23.525Z,102559.03
2023-05-19T03:34:53.552Z,102558.39
2023-05-19T03:37:23.613Z,102558.90
2023-05-19T03:39:53.631Z,102558.30
2023-05-19T03:42:24.246Z,102558.16
2023-05-19T03:44:54.891Z,102557.39
2023-05-19T03:47:25.551Z,102558.30
2023-05-19T03:49:56.192Z,102557.33
2023-05-19T03:52:26.760Z,102557.67
2023-05-19T03:54:57.384Z,102553.76
2023-05-19T03:57:27.715Z,102557.45
2023-05-19T03:59:57.727Z,102558.04
2023-05-19T04:02:28.172Z,102559.56
2023-05-19T04:04:58.482Z,102556.28
2023-05-19T04:07:28.870Z,102556.21
2023-05-19T04:09:59.503Z,102561.02
2023-05-19T04:12:29.756Z,102562.10
2023-05-19T04:15:00.441Z,102560.61
2023-05-19T04:17:30.426Z,102562.56
2023-05-19T04:20:01.030Z,102564.40
2023-05-19T04:22:31.447Z,102571.40
2023-05-19T04:25:01.931Z,102575.07
2023-05-19T04:27:32.282Z,102573.42
2023-05-19T04:30:02.666Z,102577.13
2023-05-19T04:32:33.415Z,102580.25
2023-05-19T04:35:03.896Z,102587.59
2023-05-19T04:37:34.249Z,102581.08
2023-05-19T04:40:04.890Z,102580.61
2023-05-19T04:42:35.610Z,102575.85
2023-05-19T04:45:06.126Z,102573.58
2023-05-19T04:47:36.552Z,102575.73
2023-05-19T04:50:06.527Z,102579.40
2023-05-19T04:52:36.820Z,102584.47
2023-05-19T04:55:06.869Z,102584.73
2023-05-19T04:57:37.533Z,102585.44
2023-05-19T05:00:07.597Z,102583.57
2023-05-19T05:02:38.267Z,102582.20
2023-05-19T05:05:08.898Z,102583.64
2023-05-19T05:07:39.169Z,102585.88
2023-05-19T05:10:09.467Z,102589.31
2023-05-19T05:12:40.092Z,102589.00
2023-05-19T05:15:10.674Z,102590.66
2023-05-19T05:17:40.846Z,102591.37
2023-05-19T05:20:10.759Z,102589.48
2023-05-19T05:22:41.376Z,102586.07
2023-05-19T05:25:11.739Z,102588.89
2023-05-19T05:27:42.088Z,102587.16
2023-05-19T05:30:12.098Z,102585.18
2023-05-19T05:32:42.904Z,102584.91
2023-05-19T05:35:13.068Z,102582.15
2023-05-19T05:37:43.881Z,102581.46
2023-05-19T05:40:14.011Z,102579.30
2023-05-19T05:42:44.220Z,102576.22
2023-05-19T05:45:14.282Z,102578.82
2023-05-19T05:47:44.951Z,102578.23
2023-05-19T05:50:15.733Z,102581.19
2023-05-19T05:52:46.319Z,102582.54
2023-05-19T05:55:16.665Z,102582.83
2023-05-19T05:57:47.259Z,102583.33
2023-05-19T06:00:17.873Z,102578.46
2023-05-19T06:02:48.271Z,102581.31
2023-05-19T06:05:19.072Z,102580.11
2023-05-19T06:07:49.598Z,102580.42
2023-05-19T06:10:19.852Z,102577.82
2023-05-19T06:12:50.448Z,102577.78
2023-05-19T06:15:20.432Z,102579.73
2023-05-19T06:17:51.037Z,102582.36
2023-05-19T06:20:21.227Z,102588.42
2023-05-19T06:22:51.219Z,102588.12
2023-05-19T06:25:21.453Z,102587.18
2023-05-19T06:27:52.001Z,102589.13
2023-05-19T06:30:22.286Z,102587.28
2023-05-19T06:32:52.886Z,102586.73
2023-05-19T06:35:23.152Z,102587.53
2023-05-19T06:37:53.967Z,102590.72
2023-05-19T06:40:24.834Z,102596.55
2023-05-19T06:42:55.455Z,102591.67
2023-05-19T06:45:25.930Z,102588.74
2023-05-19T06:47:56.272Z,102588.00
2023-05-19T06:50:26.978Z,102590.49
2023-05-19T06:52:57.249Z,102588.95
2023-05-19T06:55:27.793Z,102591.19
2023-05-19T06:57:58.326Z,102590.70
2023-05-19T07:00:28.835Z,102587.99
2023-05-19T07:02:59.450Z,102586.42
2023-05-19T07:05:29.895Z,102584.03
2023-05-19T07:08:00.401Z,102586.67
2023-05-19T07:10:31.132Z,102581.85
2023-05-19T07:13:01.194Z,102585.04
2023-05-19T07:15:31.689Z,102585.50
2023-05-19T07:18:02.259Z,102583.21
2023-05-19T07:20:32.972Z,102579.45
2023-05-19T07:23:03.216Z,102579.98
2023-05-19T07:25:33.731Z,102578.60
2023-05-19T07:28:04.235Z,102578.71
2023-05-19T07:30:34.677Z,102576.07
2023-05-19T07:33:04.834Z,102579.14
2023-05-19T07:35:35.519Z,102579.13
2023-05-19T07:38:05.762Z,102579.04
2023-05-19T07:40:36.454Z,102575.77
2023-05-19T07:43:06.652Z,102574.63
2023-05-19T07:45:36.755Z,102571.39
2023-05-19T07:48:07.254Z,102572.38
2023-05-19T07:50:37.458Z,102571.96
2023-05-19T07:53:07.973Z,102572.47
2023-05-19T07:55:38.476Z,102573.17
2023-05-19T07:58:08.934Z,102571.53
2023-05-19T08:00:39.516Z,102570.86
2023-05-19T08:03:09.810Z,102568.95
2023-05-19T08:05:40.041Z,102565.58
2023-05-19T08:08:10.491Z,102561.62
2023-05-19T08:10:40.941Z,102562.71
2023-05-19T08:13:11.437Z,102559.40
2023-05-19T08:15:42.000Z,102556.09
2023-05-19T08:18:12.347Z,102554.00
2023-05-19T08:20:42.693Z,102552.70
2023-05-19T08:23:13.135Z,102553.06
2023-05-19T08:25:43.605Z,102552.26
2023-05-19T08:28:13.970Z,102549.17
2023-05-19T08:30:44.400Z,102548.72
2023-05-19T08:33:14.902Z,102545.69
2023-05-19T08:35:45.253Z,102538.98
2023-05-19T08:38:15.289Z,102537.97
2023-05-19T08:40:45.724Z,102533.50
2023-05-19T08:43:16.116Z,102523.14
2023-05-19T08:45:46.546Z,102520.04
2023-05-19T08:48:16.979Z,102518.34
2023-05-19T08:50:47.331Z,102519.41
2023-05-19T08:53:31.962Z,102511.42
2023-05-19T08:55:48.102Z,102511.77
2023-05-19T08:58:18.522Z,102511.33
2023-05-19T09:00:48.845Z,102508.66
2023-05-19T09:03:23.771Z,102504.47
2023-05-19T09:05:49.630Z,102505.68
2023-05-19T09:08:20.014Z,102503.71
2023-05-19T09:10:50.311Z,102502.38
2023-05-19T09:13:20.808Z,102504.73
2023-05-19T09:15:51.044Z,102501.80
2023-05-19T09:18:21.399Z,102497.21
2023-05-19T09:20:51.751Z,102498.24
2023-05-19T09:23:21.808Z,102498.31
2023-05-19T09:25:52.169Z,102495.09
2023-05-19T09:28:22.497Z,102490.48
2023-05-19T09:30:52.845Z,102488.40
2023-05-19T09:33:23.286Z,102483.25
2023-05-19T09:35:53.540Z,102479.12
2023-05-19T09:38:23.856Z,102471.73
2023-05-19T09:40:54.209Z,102473.09
2023-05-19T09:43:24.522Z,102472.75
2023-05-19T09:45:54.613Z,102472.74
2023-05-19T09:48:24.909Z,102470.58
2023-05-19T09:50:55.223Z,102475.29
2023-05-19T09:53:25.534Z,102472.21
2023-05-19T09:55:55.843Z,102475.16
2023-05-19T09:58:26.155Z,102477.29
2023-05-19T10:00:56.484Z,102475.84
2023-05-19T10:03:26.796Z,102470.37
2023-05-19T10:05:57.178Z,102466.41
2023-05-19T10:08:27.925Z,102464.55
2023-05-19T10:10:58.268Z,102461.85
2023-05-19T10:13:28.529Z,102452.88
2023-05-19T10:16:00.065Z,102456.42
2023-05-19T10:18:29.161Z,102458.78
2023-05-19T10:20:59.486Z,102449.67
2023-05-19T10:23:29.754Z,102450.83
2023-05-19T10:26:00.104Z,102441.83
2023-05-19T10:28:30.344Z,102436.46
2023-05-19T10:31:00.647Z,102430.43
2023-05-19T10:33:30.950Z,102426.17
2023-05-19T10:36:01.218Z,102429.47
2023-05-19T10:38:31.460Z,102424.33
2023-05-19T10:41:01.836Z,102425.65
2023-05-19T10:43:32.026Z,102424.92
2023-05-19T10:46:02.357Z,102429.54
2023-05-19T10:48:32.514Z,102423.74
2023-05-19T10:51:02.768Z,102417.70
2023-05-19T10:53:33.041Z,102414.22
2023-05-19T10:56:03.310Z,102418.22
2023-05-19T10:58:33.545Z,102421.40
2023-05-19T11:01:03.817Z,102416.32
2023-05-19T11:03:34.104Z,102415.17
2023-05-19T11:06:04.384Z,102413.91
2023-05-19T11:08:34.548Z,102409.52
2023-05-19T11:11:04.812Z,102405.57
2023-05-19T11:13:35.045Z,102401.92
2023-05-19T11:16:05.317Z,102406.74
2023-05-19T11:18:35.548Z,102405.32
2023-05-19T11:21:05.822Z,102404.87
2023-05-19T11:23:36.086Z,102406.96
2023-05-19T11:26:06.289Z,102409.66
2023-05-19T11:28:36.581Z,102412.27
2023-05-19T11:31:06.770Z,102408.11
2023-05-19T11:33:37.003Z,102404.26
2023-05-19T11:36:07.807Z,102400.90
2023-05-19T11:38:38.027Z,102397.61
2023-05-19T11:41:08.303Z,102392.74
2023-05-19T11:43:38.511Z,102394.89
2023-05-19T11:46:08.865Z,102389.53
2023-05-19T11:48:39.072Z,102386.17
2023-05-19T11:51:09.270Z,102381.57
2023-05-19T11:53:39.512Z,102384.42
2023-05-19T11:56:09.780Z,102378.93
2023-05-19T11:58:40.061Z,102378.34
2023-05-19T12:01:10.279Z,102379.77
2023-05-19T12:03:40.689Z,102365.99
2023-05-19T12:06:10.911Z,102366.81
2023-05-19T12:08:41.067Z,102369.24
2023-05-19T12:11:11.316Z,102371.08
2023-05-19T12:13:41.572Z,102365.26
2023-05-19T12:16:11.938Z,102367.73
2023-05-19T12:18:42.235Z,102371.62
2023-05-19T12:21:12.462Z,102371.24
2023-05-19T12:23:42.703Z,102374.40
2023-05-19T12:26:13.006Z,102374.15
2023-05-19T12:28:43.246Z,102373.37
2023-05-19T12:31:13.621Z,102372.50
2023-05-19T12:33:43.878Z,102369.58
2023-05-19T12:36:14.215Z,102361.79
2023-05-19T12:38:44.444Z,102359.21
2023-05-19T12:41:14.714Z,102362.44
2023-05-19T12:43:44.938Z,102355.36
2023-05-19T12:46:15.269Z,102357.10
2023-05-19T12:48:45.552Z,102361.75
2023-05-19T12:51:15.742Z,102356.21
2023-05-19T12:53:45.938Z,102354.70
2023-05-19T12:56:16.792Z,102353.33
2023-05-19T12:58:47.011Z,102349.90
2023-05-19T13:01:17.507Z,102348.66
2023-05-19T13:03:47.632Z,102349.71
2023-05-19T13:06:17.789Z,102349.33
2023-05-19T13:08:47.932Z,102343.70
2023-05-19T13:11:18.246Z,102344.08
2023-05-19T13:13:48.383Z,102334.91
2023-05-19T13:16:18.680Z,102340.41
2023-05-19T13:18:48.876Z,102341.80
2023-05-19T13:21:19.125Z,102343.42
2023-05-19T13:23:49.308Z,102341.04
2023-05-19T13:26:19.570Z,102342.35
2023-05-19T13:28:49.681Z,102341.82
2023-05-19T13:31:19.954Z,102337.15
2023-05-19T13:33:50.153Z,102334.90
2023-05-19T13:36:20.373Z,102332.62
2023-05-19T13:38:50.529Z,102333.24
2023-05-19T13:41:20.809Z,102336.21
2023-05-19T13:43:50.999Z,102329.66
2023-05-19T13:46:29.519Z,102325.12
2023-05-19T13:48:51.438Z,102324.15
2023-05-19T13:51:21.670Z,102318.42
2023-05-19T13:53:51.884Z,102314.03
2023-05-19T13:56:22.226Z,102318.27
2023-05-19T13:58:52.370Z,102319.36
2023-05-19T14:01:22.677Z,102319.53
2023-05-19T14:03:52.987Z,102315.77
2023-05-19T14:06:23.130Z,102315.71
2023-05-19T14:08:53.387Z,102318.89
2023-05-19T14:11:23.687Z,102319.88
2023-05-19T14:13:53.911Z,102323.03
2023-05-19T14:16:24.103Z,102317.93
2023-05-19T14:18:54.432Z,102316.07
2023-05-19T14:21:24.557Z,102321.36
2023-05-19T14:23:54.766Z,102313.13
2023-05-19T14:26:25.621Z,102310.26
2023-05-19T14:28:55.340Z,102308.58
2023-05-19T14:31:25.492Z,102311.20
2023-05-19T14:33:55.793Z,102307.43
2023-05-19T14:36:25.988Z,102305.53
2023-05-19T14:38:56.206Z,102308.48
2023-05-19T14:41:26.454Z,102308.26
2023-05-19T14:43:56.688Z,102310.23
2023-05-19T14:46:26.951Z,102312.12
2023-05-19T14:48:57.177Z,102311.68
2023-05-19T14:51:27.426Z,102305.09
2023-05-19T14:53:57.650Z,102291.84
2023-05-19T14:56:28.587Z,102291.56
2023-05-19T14:58:58.699Z,102290.41
2023-05-19T15:01:29.087Z,102291.94
2023-05-19T15:03:59.247Z,102293.06
2023-05-19T15:06:29.399Z,102297.88
2023-05-19T15:08:59.633Z,102296.38
2023-05-19T15:11:29.928Z,102293.12
2023-05-19T15:14:00.138Z,102283.89
2023-05-19T15:16:30.414Z,102271.33
2023-05-19T15:19:00.667Z,102272.55
2023-05-19T15:21:30.859Z,102274.39
2023-05-19T15:24:01.084Z,102272.58
2023-05-19T15:26:31.331Z,102272.38
2023-05-19T15:29:01.560Z,102274.40
2023-05-19T15:31:31.834Z,102274.84
2023-05-19T15:34:02.029Z,102276.51
2023-05-19T15:36:32.283Z,102277.59
2023-05-19T15:39:02.506Z,102278.07
2023-05-19T15:41:32.737Z,102276.04
2023-05-19T15:44:02.959Z,102279.01
2023-05-19T15:46:33.305Z,102277.99
2023-05-19T15:49:03.405Z,102278.01
2023-05-19T15:51:33.630Z,102275.07
2023-05-19T15:54:04.401Z,102272.64
2023-05-19T15:56:34.646Z,102268.50
2023-05-19T15:59:04.854Z,102268.16
2023-05-19T16:01:35.143Z,102267.06
2023-05-19T16:04:05.471Z,102262.59
2023-05-19T16:06:35.555Z,102254.47
2023-05-19T16:09:05.861Z,102254.62
2023-05-19T16:11:36.015Z,102259.69
2023-05-19T16:14:06.304Z,102267.62
2023-05-19T16:16:36.550Z,102268.09
2023-05-19T16:19:06.729Z,102265.81
2023-05-19T16:21:36.967Z,102265.58
2023-05-19T16:24:07.192Z,102262.37
2023-05-19T16:26:37.457Z,102257.47
2023-05-19T16:29:07.892Z,102257.28
2023-05-19T16:31:38.093Z,102254.33
2023-05-19T16:34:08.342Z,102253.37
2023-05-19T16:36:38.650Z,102255.23
2023-05-19T16:39:09.148Z,102257.29
2023-05-19T16:41:39.572Z,102253.89
2023-05-19T16:44:09.893Z,102257.39
2023-05-19T16:46:40.045Z,102261.84
2023-05-19T16:49:10.282Z,102254.90
2023-05-19T16:51:40.549Z,102251.13
2023-05-19T16:54:10.777Z,102257.00
2023-05-19T16:56:41.056Z,102253.84
2023-05-19T16:59:11.286Z,102253.80
2023-05-19T17:01:41.953Z,102257.24
2023-05-19T17:04:11.810Z,102257.97
2023-05-19T17:06:42.065Z,102255.68
2023-05-19T17:09:12.291Z,102254.02
2023-05-19T17:11:42.547Z,102256.25
2023-05-19T17:14:12.869Z,102257.61
2023-05-19T17:16:43.180Z,102263.97
2023-05-19T17:19:13.352Z,102257.91
2023-05-19T17:21:43.637Z,102256.19
2023-05-19T17:24:13.775Z,102255.74
2023-05-19T17:26:44.116Z,102260.59
2023-05-19T17:29:14.302Z,102260.45
2023-05-19T17:31:44.624Z,102260.64
2023-05-19T17:34:14.859Z,102265.32
2023-05-19T17:36:45.183Z,102267.88
2023-05-19T17:39:15.392Z,102268.32
2023-05-19T17:41:45.758Z,102268.62
2023-05-19T17:44:16.048Z,102267.45
2023-05-19T17:46:46.278Z,102267.65
2023-05-19T17:49:16.527Z,102266.72
2023-05-19T17:51:46.795Z,102270.86
2023-05-19T17:54:17.066Z,102270.84
2023-05-19T17:56:47.359Z,102271.82
2023-05-19T17:59:17.616Z,102274.07
2023-05-19T18:01:47.951Z,102270.78
2023-05-19T18:04:18.208Z,102269.12
2023-05-19T18:06:48.456Z,102270.32
2023-05-19T18:09:18.730Z,102272.94
2023-05-19T18:11:49.036Z,102273.32
2023-05-19T18:14:19.292Z,102272.84
2023-05-19T18:16:49.724Z,102275.02
2023-05-19T18:19:19.948Z,102277.54
2023-05-19T18:21:50.192Z,102281.41
2023-05-19T18:24:20.479Z,102285.24
2023-05-19T18:26:50.843Z,102285.96
2023-05-19T18:29:21.005Z,102287.50
2023-05-19T18:31:51.353Z,102286.12
2023-05-19T18:34:21.632Z,102284.57
2023-05-19T18:36:51.939Z,102284.89
2023-05-19T18:39:22.150Z,102285.03
2023-05-19T18:41:52.457Z,102288.23
2023-05-19T18:44:22.744Z,102293.30
2023-05-19T18:46:53.038Z,102294.04
2023-05-19T18:49:23.338Z,102291.61
2023-05-19T18:51:53.641Z,102290.40
2023-05-19T18:54:24.031Z,102290.78
2023-05-19T18:56:54.256Z,102291.49
2023-05-19T18:59:24.550Z,102293.69
2023-05-19T19:01:54.863Z,102296.67
2023-05-19T19:04:25.208Z,102297.12
2023-05-19T19:06:55.552Z,102299.13
2023-05-19T19:09:25.798Z,102305.77
2023-05-19T19:11:56.183Z,102309.68
2023-05-19T19:14:26.408Z,102316.27
2023-05-19T19:16:56.791Z,102322.65
2023-05-19T19:19:27.184Z,102327.90
2023-05-19T19:21:57.482Z,102326.86
2023-05-19T19:24:27.750Z,102327.73
2023-05-19T19:26:58.226Z,102324.78
2023-05-19T19:29:28.481Z,102329.51
2023-05-19T19:31:58.946Z,102333.79
2023-05-19T19:34:29.226Z,102336.44
2023-05-19T19:36:59.604Z,102334.01
2023-05-19T19:39:29.962Z,102339.37
2023-05-19T19:42:00.391Z,102340.28
2023-05-19T19:44:30.720Z,102342.45
2023-05-19T19:47:01.123Z,102344.25
2023-05-19T19:49:31.528Z,102352.06
2023-05-19T19:52:01.994Z,102354.29
2023-05-19T19:54:32.307Z,102354.81
2023-05-19T19:57:02.738Z,102355.06
2023-05-19T19:59:33.178Z,102354.91
2023-05-19T20:02:03.514Z,102359.80
2023-05-19T20:04:33.948Z,102358.44
2023-05-19T20:07:04.346Z,102360.61
2023-05-19T20:09:34.690Z,102365.72
2023-05-19T20:12:05.209Z,102368.94
2023-05-19T20:14:35.510Z,102365.63
2023-05-19T20:17:05.931Z,102368.61
2023-05-19T20:19:36.381Z,102368.29
2023-05-19T20:22:06.762Z,102368.31
2023-05-19T20:24:37.183Z,102366.69
2023-05-19T20:27:07.677Z,102362.08
2023-05-19T20:29:37.985Z,102367.07
2023-05-19T20:32:08.436Z,102366.94
2023-05-19T20:34:38.938Z,102371.77
2023-05-19T20:37:09.244Z,102374.91
2023-05-19T20:39:39.630Z,102371.97
2023-05-19T20:42:10.127Z,102375.94
2023-05-19T20:44:40.553Z,102375.07
2023-05-19T20:47:10.903Z,102375.56
2023-05-19T20:49:41.045Z,102368.73
2023-05-19T20:52:11.482Z,102371.54
2023-05-19T20:54:41.901Z,102372.75
2023-05-19T20:57:12.381Z,102374.23
2023-05-19T20:59:42.738Z,102376.51
2023-05-19T21:02:13.187Z,102376.76
2023-05-19T21:04:43.623Z,102377.30
2023-05-19T21:07:14.058Z,102377.40
2023-05-19T21:09:44.164Z,102376.54
2023-05-19T21:12:14.637Z,102377.30
2023-05-19T21:14:45.018Z,102373.75
2023-05-19T21:17:15.515Z,102371.15
2023-05-19T21:19:45.886Z,102369.50
2023-05-19T21:22:16.330Z,102371.15
2023-05-19T21:24:46.773Z,102375.39
2023-05-19T21:27:17.316Z,102376.89
2023-05-19T21:29:47.635Z,102378.07
2023-05-19T21:32:18.098Z,102380.98
2023-05-19T21:34:48.533Z,102385.73
2023-05-19T21:37:18.977Z,102385.17
2023-05-19T21:39:49.402Z,102387.96
2023-05-19T21:42:19.859Z,102391.62
2023-05-19T21:44:50.330Z,102391.23
2023-05-19T21:47:20.785Z,102391.73
2023-05-19T21:49:51.216Z,102394.93
2023-05-19T21:52:21.660Z,102395.17
2023-05-19T21:54:52.117Z,102395.97
2023-05-19T21:57:22.644Z,102393.52
2023-05-19T21:59:53.010Z,102395.88
2023-05-19T22:02:23.529Z,102394.93
2023-05-19T22:04:53.932Z,102394.77
2023-05-19T22:07:24.400Z,102396.99
2023-05-19T22:09:54.865Z,102402.25
2023-05-19T22:12:25.320Z,102401.33
2023-05-19T22:14:55.754Z,102400.42
2023-05-19T22:17:25.892Z,102397.47
2023-05-19T22:19:56.331Z,102392.82
2023-05-19T22:22:26.785Z,102395.77
2023-05-19T22:24:57.209Z,102398.71
2023-05-19T22:27:27.767Z,102394.80
2023-05-19T22:29:58.103Z,102395.01
2023-05-19T22:32:28.569Z,102400.21
2023-05-19T22:34:59.077Z,102394.47
2023-05-19T22:37:29.598Z,102395.57
2023-05-19T22:39:59.937Z,102389.33
2023-05-19T22:42:30.415Z,102388.51
2023-05-19T22:45:00.835Z,102384.33
2023-05-19T22:47:31.333Z,102384.14
2023-05-19T22:50:01.764Z,102386.38
2023-05-19T22:52:32.195Z,102386.08
2023-05-19T22:55:02.368Z,102386.49
2023-05-19T22:57:32.838Z,102386.15
2023-05-19T23:00:03.321Z,102382.28
2023-05-19T23:02:33.547Z,102380.49
2023-05-19T23:05:04.076Z,102381.16
2023-05-19T23:07:34.413Z,102383.11
2023-05-19T23:10:04.922Z,102383.49
2023-05-19T23:12:35.339Z,102381.02
2023-05-19T23:15:05.763Z,102383.59
2023-05-19T23:17:36.328Z,102381.41
2023-05-19T23:20:06.816Z,102382.03
2023-05-19T23:22:37.337Z,102381.37
2023-05-19T23:25:07.959Z,102378.30
2023-05-19T23:27:38.319Z,102379.00
2023-05-19T23:30:08.752Z,102380.71
2023-05-19T23:32:39.235Z,102381.14
2023-05-19T23:35:09.700Z,102383.20
2023-05-19T23:37:40.187Z,102381.26
2023-05-19T23:40:10.641Z,102380.25
2023-05-19T23:42:41.187Z,102375.94
2023-05-19T23:45:11.604Z,102374.66
2023-05-19T23:47:42.076Z,102373.43
2023-05-19T23:50:12.506Z,102377.56
2023-05-19T23:52:42.963Z,102373.12
2023-05-19T23:55:13.376Z,102372.10
2023-05-19T23:57:43.856Z,102370.67
